KFSD/FSD METAR and TAF weather

Enter ICAO airport designator
Station Type Date Time Source
KFSD METAR 2019/08/19 07:56 UTC NOAA

KFSD 190756Z AUTO 00000KT 10SM CLR 14/13 A2998 RMK AO2 SLP148 T01390128 $


Station Type Date Time Source
KFSD Decoded METAR 2019/08/19 07:56 UTC NOAA

Station name not available
Aug 19, 2019 - 03:56 AM EDT / 2019.08.19 0756 UTC
Wind: Calm:0
Visibility: 10 mile(s):0
Sky conditions: clear
Temperature: 57.0 F (13.9 C)
Dew Point: 55.0 F (12.8 C)
Relative Humidity: 93%
Pressure (altimeter): 29.98 in. Hg (1015 hPa)
ob: KFSD 190756Z AUTO 00000KT 10SM CLR 14/13 A2998 RMK AO2 SLP148 T01390128
cycle: 8

Station Type Date Time Source
KFSD TAF 2019/08/19 06:22 UTC NOAA

TAF KFSD 190520Z 1906/2006 VRB03KT P6SM SKC
FM191400 17006KT P6SM SKC
FM191900 17011G16KT P6SM FEW080
FM200000 16009KT P6SM SCT060

Example: see airport list